Terminal Aerodrome Forecast
Issued by NWS Sterling, VA

Current Version | Previous Version | Text Only | Print | Product List | Glossary Off
Versions: 1 2 3 4 5 6 7 8 9 10 11 12 13 14 15 16 17 18 19 20 21 22 23 24 25 26 27 28

143
FTUS41 KLWX 292320
TAFIAD
TAF
KIAD 292320Z 3000/3106 32003KT P6SM FEW045 FEW090 SCT250
     FM301300 13004KT P6SM BKN035
     FM301500 15005KT P6SM SHRA VCTS BKN030CB
     FM301800 15005KT 5SM SHRA VCTS OVC035CB
     FM310000 14005KT 6SM -SHRA VCTS OVC035CB=

USA.gov is the U.S. government's official web portal to all federal, state and local government web resources and services.